Time;durP1;ratioP1;P1;durP2;ratioP2;P2;SDS_P1;SDS_P2;PMS_P1;PMS_P2;Temp;Humidity;BMP_temperature;BMP_pressure;BME280_temperature;BME280_humidity;BME280_pressure;Samples;Min_cycle;Max_cycle;Signal;HPM_P1;HPM_P2
2024/03/26 00:00:18;;;;;;;2.00;1.63;;;10.00;59.90;;;;;;5080818;28;20036;-65
2024/03/26 00:02:44;;;;;;;0.77;0.70;;;10.00;60.00;;;;;;5083221;28;20036;-64
2024/03/26 00:05:09;;;;;;;1.63;1.30;;;9.90;60.00;;;;;;5081894;28;20470;-66
2024/03/26 00:07:36;;;;;;;0.95;0.90;;;10.00;60.10;;;;;;5086314;28;20486;-66
2024/03/26 00:10:03;;;;;;;1.77;0.88;;;9.90;60.10;;;;;;5080919;28;20028;-65
2024/03/26 00:12:30;;;;;;;1.27;0.93;;;9.90;60.20;;;;;;5080235;28;20342;-65
2024/03/26 00:14:55;;;;;;;1.13;1.02;;;9.90;60.30;;;;;;5085949;28;20039;-65
2024/03/26 00:17:21;;;;;;;2.70;1.00;;;9.90;60.30;;;;;;5082157;28;20115;-65
2024/03/26 00:19:47;;;;;;;1.13;0.88;;;9.90;60.40;;;;;;5084784;28;20025;-65
2024/03/26 00:22:13;;;;;;;9.85;1.48;;;9.90;60.50;;;;;;5083664;28;20043;-65
2024/03/26 00:24:39;;;;;;;2.42;1.27;;;9.80;60.50;;;;;;5080695;28;20047;-65
2024/03/26 00:27:05;;;;;;;1.65;1.02;;;9.80;60.60;;;;;;5079938;28;20056;-65
2024/03/26 00:29:31;;;;;;;0.88;0.80;;;9.80;61.30;;;;;;5084309;28;20111;-66
2024/03/26 00:31:56;;;;;;;7.22;0.80;;;9.80;60.70;;;;;;5077305;28;20118;-66
2024/03/26 00:34:22;;;;;;;1.85;0.85;;;9.80;60.70;;;;;;5086502;28;20119;-66
2024/03/26 00:36:48;;;;;;;1.70;1.10;;;9.80;60.70;;;;;;5072639;28;20038;-65
2024/03/26 00:39:14;;;;;;;2.58;1.02;;;9.70;60.70;;;;;;5079814;28;20108;-64
2024/03/26 00:41:40;;;;;;;0.95;0.90;;;9.70;60.80;;;;;;5075289;28;20093;-64
2024/03/26 00:44:06;;;;;;;2.42;1.40;;;9.70;60.90;;;;;;5080075;28;20024;-64
2024/03/26 00:46:34;;;;;;;1.23;0.90;;;9.60;61.00;;;;;;5087186;28;20040;-65
2024/03/26 00:49:02;;;;;;;1.85;1.15;;;9.60;61.00;;;;;;5081407;28;20020;-64
2024/03/26 00:51:28;;;;;;;2.70;1.08;;;9.60;61.00;;;;;;5086984;28;20043;-64
2024/03/26 00:53:54;;;;;;;2.05;0.80;;;9.60;61.10;;;;;;5086866;28;20028;-66
2024/03/26 00:56:20;;;;;;;4.47;0.75;;;9.50;61.10;;;;;;5074525;28;20098;-66
2024/03/26 00:58:46;;;;;;;1.67;0.90;;;9.50;61.20;;;;;;5084584;28;20025;-66
2024/03/26 01:01:12;;;;;;;2.60;1.02;;;9.50;61.30;;;;;;5085331;28;20597;-66
2024/03/26 01:03:38;;;;;;;2.17;1.00;;;9.50;61.40;;;;;;5087414;28;20513;-66
2024/03/26 01:06:04;;;;;;;1.25;1.15;;;9.50;61.40;;;;;;5084592;28;20054;-66
2024/03/26 01:08:30;;;;;;;2.28;0.60;;;9.50;61.40;;;;;;5084235;28;20036;-66
2024/03/26 01:10:56;;;;;;;1.08;0.75;;;9.40;61.40;;;;;;5080893;28;20089;-66
2024/03/26 01:13:22;;;;;;;2.63;1.20;;;9.40;61.50;;;;;;5085351;28;20454;-66
2024/03/26 01:15:48;;;;;;;1.95;1.00;;;9.40;61.60;;;;;;5079783;28;20101;-66
2024/03/26 01:18:14;;;;;;;2.05;0.80;;;9.40;61.70;;;;;;5081865;28;20391;-66
2024/03/26 01:20:44;;;;;;;2.20;0.90;;;9.30;61.70;;;;;;5086689;28;20039;-65
2024/03/26 01:23:10;;;;;;;2.97;1.25;;;9.30;61.80;;;;;;5082454;28;20032;-66
2024/03/26 01:25:36;;;;;;;5.55;1.45;;;9.30;62.00;;;;;;5080831;28;20511;-65
2024/03/26 01:28:03;;;;;;;1.65;1.27;;;9.30;62.00;;;;;;5069404;28;20036;-65
2024/03/26 01:30:29;;;;;;;1.58;0.60;;;9.20;62.10;;;;;;5084535;28;20024;-66
2024/03/26 01:32:54;;;;;;;2.08;1.15;;;9.20;62.10;;;;;;5081260;28;20200;-66
2024/03/26 01:35:20;;;;;;;1.23;0.90;;;9.20;62.10;;;;;;5076469;28;20518;-64
2024/03/26 01:37:47;;;;;;;2.40;1.20;;;9.20;62.20;;;;;;5065108;28;20055;-65
2024/03/26 01:40:14;;;;;;;2.67;1.05;;;9.20;62.20;;;;;;5080564;28;20016;-65
2024/03/26 01:42:40;;;;;;;1.98;1.30;;;9.20;62.20;;;;;;5084201;28;20020;-65
2024/03/26 01:45:07;;;;;;;1.05;0.80;;;9.20;62.20;;;;;;5077572;28;20024;-65
2024/03/26 01:47:36;;;;;;;0.80;0.70;;;9.20;62.30;;;;;;5085432;28;20445;-65
2024/03/26 01:50:03;;;;;;;1.52;0.82;;;9.10;62.20;;;;;;5077600;28;20024;-65
2024/03/26 01:52:31;;;;;;;0.93;0.65;;;9.10;62.20;;;;;;5086808;28;20490;-65
2024/03/26 01:54:58;;;;;;;0.88;0.60;;;9.10;62.20;;;;;;5090159;28;20047;-64
2024/03/26 01:57:25;;;;;;;2.60;0.60;;;9.10;62.20;;;;;;5087024;28;20028;-64
2024/03/26 01:59:54;;;;;;;2.35;1.02;;;9.10;62.30;;;;;;5091089;28;20142;-64
2024/03/26 02:02:21;;;;;;;3.50;1.08;;;9.10;62.30;;;;;;5089084;28;20036;-65
2024/03/26 02:04:47;;;;;;;2.60;1.13;;;9.10;62.40;;;;;;5085616;28;20027;-65
2024/03/26 02:07:16;;;;;;;1.25;1.08;;;9.00;62.30;;;;;;5088838;28;20032;-65
2024/03/26 02:09:42;;;;;;;2.17;0.63;;;9.00;62.40;;;;;;5083680;28;20560;-65
2024/03/26 02:12:08;;;;;;;1.65;1.00;;;9.00;62.40;;;;;;5087505;28;20024;-65
2024/03/26 02:14:34;;;;;;;4.00;0.95;;;9.00;62.40;;;;;;5081423;28;20068;-65
2024/03/26 02:17:00;;;;;;;1.10;1.00;;;9.00;62.40;;;;;;5089935;28;20016;-64
2024/03/26 02:19:26;;;;;;;0.88;0.88;;;9.00;62.40;;;;;;5084321;28;20562;-64
2024/03/26 02:21:53;;;;;;;0.90;0.88;;;9.00;62.50;;;;;;5090200;28;20118;-64
2024/03/26 02:24:19;;;;;;;3.72;0.80;;;9.00;62.40;;;;;;5085056;28;20032;-64
2024/03/26 02:26:45;;;;;;;1.52;0.80;;;9.00;62.40;;;;;;5082126;28;20082;-64
2024/03/26 02:29:11;;;;;;;9.20;1.52;;;9.00;62.50;;;;;;5081463;28;20039;-64
2024/03/26 02:31:36;;;;;;;3.63;0.80;;;9.00;62.50;;;;;;5088268;28;20544;-65
2024/03/26 02:34:02;;;;;;;1.13;0.93;;;9.00;62.50;;;;;;5088280;28;20038;-65
2024/03/26 02:36:28;;;;;;;0.85;0.70;;;9.00;62.60;;;;;;5090651;28;20454;-64
2024/03/26 02:38:54;;;;;;;1.67;0.90;;;9.00;62.60;;;;;;5090062;28;20390;-64
2024/03/26 02:41:20;;;;;;;3.45;0.90;;;9.00;62.60;;;;;;5080333;28;20024;-64
2024/03/26 02:43:50;;;;;;;3.88;0.93;;;9.00;62.70;;;;;;5044531;28;20068;-65
2024/03/26 02:46:16;;;;;;;3.78;1.17;;;9.00;62.80;;;;;;5074827;28;20070;-65
2024/03/26 02:48:42;;;;;;;1.30;0.68;;;9.00;62.90;;;;;;5075642;28;20372;-65
2024/03/26 02:51:08;;;;;;;1.20;0.88;;;9.00;62.90;;;;;;5080159;28;20035;-65
2024/03/26 02:53:34;;;;;;;1.05;0.73;;;8.90;62.80;;;;;;5087395;28;20537;-64
2024/03/26 02:56:00;;;;;;;3.17;1.35;;;9.00;63.00;;;;;;5084953;28;20028;-64
2024/03/26 02:58:26;;;;;;;1.35;0.52;;;8.90;63.00;;;;;;5078749;28;20025;-64
2024/03/26 03:00:52;;;;;;;1.10;0.88;;;8.90;63.10;;;;;;5078194;28;20040;-64
2024/03/26 03:03:18;;;;;;;1.77;0.80;;;8.90;63.10;;;;;;5082792;28;20020;-65
2024/03/26 03:05:44;;;;;;;5.32;1.50;;;8.90;63.00;;;;;;5088416;28;20028;-64
2024/03/26 03:08:10;;;;;;;0.90;0.70;;;8.90;63.10;;;;;;5089658;28;20045;-64
2024/03/26 03:10:36;;;;;;;2.55;1.00;;;8.90;63.10;;;;;;5077057;28;20086;-64
2024/03/26 03:13:01;;;;;;;2.75;1.00;;;8.90;63.00;;;;;;5084419;28;20387;-64
2024/03/26 03:15:27;;;;;;;4.43;0.88;;;8.90;63.10;;;;;;5089171;28;20087;-65
2024/03/26 03:17:53;;;;;;;1.20;0.68;;;8.90;63.10;;;;;;5083685;28;20020;-64
2024/03/26 03:20:19;;;;;;;2.03;0.85;;;8.90;63.10;;;;;;5083314;28;20371;-64
2024/03/26 03:22:45;;;;;;;3.55;1.38;;;8.90;63.10;;;;;;5079486;28;20029;-64
2024/03/26 03:25:11;;;;;;;0.85;0.68;;;8.90;63.10;;;;;;5080023;28;20052;-64
2024/03/26 03:27:37;;;;;;;3.83;1.15;;;8.90;63.20;;;;;;5082047;28;20510;-64
2024/03/26 03:30:03;;;;;;;2.60;0.82;;;8.90;63.20;;;;;;5072307;28;20033;-64
2024/03/26 03:32:29;;;;;;;2.95;0.80;;;8.80;63.20;;;;;;5086659;28;20024;-63
2024/03/26 03:34:55;;;;;;;2.20;0.90;;;8.80;63.30;;;;;;5088944;28;20040;-64
2024/03/26 03:37:21;;;;;;;2.88;1.15;;;8.80;63.40;;;;;;5089888;28;20028;-64
2024/03/26 03:39:47;;;;;;;0.95;0.57;;;8.80;63.40;;;;;;5088773;28;20028;-64
2024/03/26 03:42:13;;;;;;;1.08;0.70;;;8.70;63.50;;;;;;5086122;28;20473;-64
2024/03/26 03:44:39;;;;;;;1.25;0.80;;;8.70;63.60;;;;;;5086467;28;20406;-66
2024/03/26 03:47:06;;;;;;;0.98;0.63;;;8.70;63.70;;;;;;5085411;28;20020;-65
2024/03/26 03:49:32;;;;;;;4.05;0.90;;;8.60;63.80;;;;;;5087396;28;20145;-64
2024/03/26 03:52:01;;;;;;;6.47;1.80;;;8.60;63.80;;;;;;5082846;28;20024;-65
2024/03/26 03:54:30;;;;;;;0.50;0.50;;;8.60;63.80;;;;;;5084942;28;20484;-65
2024/03/26 03:56:56;;;;;;;2.90;1.00;;;8.60;63.90;;;;;;5083852;28;20418;-65
2024/03/26 03:59:22;;;;;;;0.77;0.63;;;8.60;64.00;;;;;;5081866;28;20564;-64
2024/03/26 04:01:48;;;;;;;1.45;0.93;;;8.60;64.00;;;;;;5087153;28;20028;-64
2024/03/26 04:04:14;;;;;;;4.15;1.10;;;8.60;64.10;;;;;;5083330;28;20506;-64
2024/03/26 04:06:40;;;;;;;1.33;0.82;;;8.50;64.10;;;;;;5082596;28;20039;-65
2024/03/26 04:09:07;;;;;;;3.28;1.17;;;8.50;64.10;;;;;;5086529;28;20039;-64
2024/03/26 04:11:34;;;;;;;2.80;1.10;;;8.50;64.20;;;;;;5087616;28;20581;-64
2024/03/26 04:14:00;;;;;;;1.27;0.70;;;8.50;64.30;;;;;;5082683;28;20506;-64
2024/03/26 04:16:26;;;;;;;2.75;0.60;;;8.50;64.30;;;;;;5087268;28;20044;-64
2024/03/26 04:18:52;;;;;;;1.75;1.13;;;8.40;64.30;;;;;;5078092;28;20028;-65
2024/03/26 04:21:18;;;;;;;4.20;0.93;;;8.40;64.30;;;;;;5088697;28;20119;-64
2024/03/26 04:23:45;;;;;;;3.22;0.65;;;8.40;64.50;;;;;;5082687;28;20036;-64
2024/03/26 04:26:11;;;;;;;2.75;0.70;;;8.40;64.40;;;;;;5079800;28;20056;-63
2024/03/26 04:28:37;;;;;;;2.38;1.27;;;8.40;64.40;;;;;;5080430;28;20032;-64
2024/03/26 04:31:03;;;;;;;1.55;0.88;;;8.40;64.50;;;;;;5086223;28;20036;-64
2024/03/26 04:33:29;;;;;;;7.00;0.80;;;8.30;64.40;;;;;;5086017;28;20032;-64
2024/03/26 04:35:55;;;;;;;1.42;0.90;;;8.30;64.50;;;;;;5077230;28;20028;-64
2024/03/26 04:38:21;;;;;;;2.45;0.70;;;8.30;64.50;;;;;;5078987;28;20036;-64
2024/03/26 04:40:46;;;;;;;1.30;0.77;;;8.30;64.60;;;;;;5078983;28;20043;-64
2024/03/26 04:43:12;;;;;;;0.43;0.43;;;8.20;64.70;;;;;;5074114;28;20036;-64
2024/03/26 04:45:38;;;;;;;0.90;0.80;;;8.20;64.80;;;;;;5083922;28;20028;-64
2024/03/26 04:48:04;;;;;;;3.38;1.23;;;8.20;64.90;;;;;;5085279;28;20497;-64
2024/03/26 04:50:31;;;;;;;1.00;0.82;;;8.10;64.90;;;;;;5072723;28;20041;-64
2024/03/26 04:52:57;;;;;;;0.98;0.60;;;8.10;64.90;;;;;;5086863;28;20028;-64
2024/03/26 04:55:23;;;;;;;0.82;0.70;;;8.10;65.00;;;;;;5085145;28;20028;-64
2024/03/26 04:57:49;;;;;;;2.53;0.60;;;8.10;65.00;;;;;;5078335;28;20022;-64
2024/03/26 05:00:15;;;;;;;1.25;0.95;;;8.00;65.00;;;;;;5054702;28;20032;-64
2024/03/26 05:02:42;;;;;;;1.95;0.73;;;8.00;65.10;;;;;;5078264;28;20399;-64
2024/03/26 05:05:08;;;;;;;1.60;0.88;;;8.00;65.20;;;;;;5077353;28;20052;-64
2024/03/26 05:07:35;;;;;;;3.17;0.82;;;7.90;65.20;;;;;;5085613;28;20024;-64
2024/03/26 05:10:01;;;;;;;4.78;1.10;;;7.90;65.20;;;;;;5085481;28;20056;-64
2024/03/26 05:12:28;;;;;;;1.70;0.95;;;7.90;65.20;;;;;;5083946;28;20044;-64
2024/03/26 05:14:54;;;;;;;1.55;0.90;;;7.90;65.30;;;;;;5080325;28;20032;-64
2024/03/26 05:17:20;;;;;;;1.50;0.55;;;7.80;65.40;;;;;;5081814;28;20031;-64
2024/03/26 05:19:46;;;;;;;2.35;0.90;;;7.80;65.50;;;;;;5068202;28;20028;-65
2024/03/26 05:22:12;;;;;;;3.95;1.45;;;7.80;65.50;;;;;;5083295;28;20028;-64
2024/03/26 05:24:39;;;;;;;3.60;1.15;;;7.80;65.50;;;;;;5087842;28;20032;-65
2024/03/26 05:27:06;;;;;;;1.02;0.90;;;7.80;65.50;;;;;;5071335;28;20414;-64
2024/03/26 05:29:32;;;;;;;1.27;0.85;;;7.80;65.60;;;;;;5070138;28;20040;-64
2024/03/26 05:31:58;;;;;;;3.58;1.45;;;7.80;65.70;;;;;;5088220;28;20059;-64
2024/03/26 05:34:24;;;;;;;1.73;0.93;;;7.80;65.80;;;;;;5070821;28;20053;-64
2024/03/26 05:36:50;;;;;;;1.38;0.65;;;7.70;65.70;;;;;;5085778;28;20364;-64
2024/03/26 05:39:16;;;;;;;0.60;0.60;;;7.80;65.80;;;;;;5085385;28;20027;-64
2024/03/26 05:41:42;;;;;;;4.60;1.15;;;7.80;65.80;;;;;;5089614;28;20032;-65
2024/03/26 05:44:07;;;;;;;1.42;0.70;;;7.80;65.80;;;;;;5084448;28;20078;-64
2024/03/26 05:46:35;;;;;;;2.60;1.10;;;7.80;65.80;;;;;;5081493;28;20028;-64
2024/03/26 05:49:01;;;;;;;2.28;1.20;;;7.80;65.90;;;;;;5089574;28;20081;-64
2024/03/26 05:51:27;;;;;;;1.15;0.80;;;7.80;65.80;;;;;;5086661;28;20044;-64
2024/03/26 05:53:53;;;;;;;3.35;1.27;;;7.80;65.80;;;;;;5083476;28;20549;-65
2024/03/26 05:56:20;;;;;;;1.48;0.63;;;7.80;65.80;;;;;;5085227;28;20415;-64
2024/03/26 05:58:46;;;;;;;2.33;1.27;;;7.80;65.80;;;;;;5088387;28;20356;-65
2024/03/26 06:01:12;;;;;;;1.33;0.70;;;7.80;65.70;;;;;;5091785;28;20088;-65
2024/03/26 06:03:38;;;;;;;3.70;1.15;;;7.90;65.90;;;;;;5084470;28;20055;-65
2024/03/26 06:06:05;;;;;;;1.75;1.25;;;7.90;65.80;;;;;;5084372;28;20107;-65
2024/03/26 06:08:30;;;;;;;0.82;0.73;;;7.90;65.70;;;;;;5090998;28;20554;-65
2024/03/26 06:10:56;;;;;;;1.08;0.95;;;8.00;66.30;;;;;;5090208;28;20123;-66
2024/03/26 06:13:22;;;;;;;4.35;1.10;;;8.00;65.70;;;;;;5089591;28;20036;-65
2024/03/26 06:15:47;;;;;;;1.25;0.80;;;8.00;65.70;;;;;;5090246;28;20035;-65
2024/03/26 06:18:13;;;;;;;3.30;1.15;;;8.00;65.70;;;;;;5083626;28;20028;-65
2024/03/26 06:20:39;;;;;;;3.17;1.27;;;8.00;65.70;;;;;;5084515;28;20032;-65
2024/03/26 06:23:05;;;;;;;4.88;0.80;;;8.00;65.70;;;;;;5096796;28;20031;-65
2024/03/26 06:25:31;;;;;;;4.05;0.85;;;8.00;65.80;;;;;;5090849;28;20499;-66
2024/03/26 06:27:56;;;;;;;5.15;0.80;;;8.10;65.80;;;;;;5071345;28;20020;-65
2024/03/26 06:30:22;;;;;;;1.00;0.70;;;8.10;65.70;;;;;;5089023;28;20110;-65
2024/03/26 06:32:51;;;;;;;1.80;1.08;;;8.10;65.70;;;;;;5082940;28;20548;-66
2024/03/26 06:35:16;;;;;;;1.77;1.05;;;8.20;65.80;;;;;;5084218;28;20110;-65
2024/03/26 06:37:43;;;;;;;2.55;1.00;;;8.20;65.70;;;;;;5086775;28;20617;-65
2024/03/26 06:40:09;;;;;;;2.38;1.10;;;8.20;65.70;;;;;;5082028;28;20103;-65
2024/03/26 06:42:35;;;;;;;3.13;1.10;;;8.30;65.70;;;;;;5076713;28;20029;-65
2024/03/26 06:45:00;;;;;;;1.48;0.90;;;8.30;65.60;;;;;;5084696;28;20043;-64
2024/03/26 06:47:26;;;;;;;1.02;0.77;;;8.40;65.50;;;;;;5085687;28;20036;-65
2024/03/26 06:49:51;;;;;;;2.75;1.02;;;8.50;65.40;;;;;;5091390;28;20050;-64
2024/03/26 06:52:17;;;;;;;2.83;1.08;;;8.50;65.30;;;;;;5073062;28;20031;-65
2024/03/26 06:54:43;;;;;;;0.85;0.60;;;8.50;65.20;;;;;;5089841;28;20032;-67
2024/03/26 06:57:09;;;;;;;2.67;0.65;;;8.60;65.30;;;;;;5089774;28;20363;-67
2024/03/26 06:59:36;;;;;;;2.63;1.02;;;8.60;65.20;;;;;;5089036;28;20093;-67
2024/03/26 07:02:03;;;;;;;1.23;0.77;;;8.60;65.20;;;;;;5082687;28;20028;-65
2024/03/26 07:04:30;;;;;;;1.00;0.60;;;8.70;65.20;;;;;;5070948;28;20501;-62
2024/03/26 07:06:56;;;;;;;1.10;0.70;;;8.70;65.20;;;;;;5079126;28;20032;-61
2024/03/26 07:09:22;;;;;;;1.00;0.88;;;8.70;65.20;;;;;;5079436;28;20045;-63
2024/03/26 07:11:47;;;;;;;3.47;1.30;;;8.80;65.20;;;;;;5078045;28;20031;-62
2024/03/26 07:14:16;;;;;;;3.03;0.93;;;8.80;65.10;;;;;;5082644;28;20032;-65
2024/03/26 07:16:41;;;;;;;1.30;0.98;;;8.90;65.10;;;;;;5060807;28;20085;-63
2024/03/26 07:19:07;;;;;;;0.80;0.60;;;8.90;64.90;;;;;;5080479;28;20094;-63
2024/03/26 07:21:34;;;;;;;2.25;1.30;;;9.00;65.00;;;;;;5088796;28;20460;-64
2024/03/26 07:24:01;;;;;;;1.35;0.70;;;9.00;64.90;;;;;;5078937;28;20115;-65
2024/03/26 07:26:29;;;;;;;2.22;1.20;;;9.10;64.90;;;;;;5070793;28;20067;-64
2024/03/26 07:28:55;;;;;;;3.05;0.90;;;9.10;64.90;;;;;;5077008;28;20113;-64
2024/03/26 07:31:21;;;;;;;1.83;1.13;;;9.20;64.80;;;;;;5087497;28;20032;-65
2024/03/26 07:33:47;;;;;;;4.05;0.93;;;9.20;64.70;;;;;;5084732;28;20055;-64
2024/03/26 07:36:12;;;;;;;1.10;0.70;;;9.30;64.60;;;;;;5084838;28;20052;-64
2024/03/26 07:38:38;;;;;;;1.48;0.90;;;9.40;64.70;;;;;;5082293;28;20032;-64
2024/03/26 07:41:04;;;;;;;1.35;0.65;;;9.50;64.60;;;;;;5084266;28;20032;-64
2024/03/26 07:43:29;;;;;;;2.25;1.25;;;9.60;64.50;;;;;;5080754;28;20479;-64
2024/03/26 07:45:55;;;;;;;1.10;1.00;;;9.60;64.20;;;;;;5078138;28;20488;-65
2024/03/26 07:48:21;;;;;;;2.33;0.77;;;9.70;64.20;;;;;;5079766;28;20028;-65
2024/03/26 07:50:46;;;;;;;1.83;1.08;;;9.70;64.10;;;;;;5085603;28;20047;-66
2024/03/26 07:53:12;;;;;;;1.35;0.90;;;9.80;64.10;;;;;;5081946;28;20028;-66
2024/03/26 07:55:37;;;;;;;1.38;0.93;;;9.80;63.90;;;;;;5078833;28;20032;-65
2024/03/26 07:58:04;;;;;;;2.58;0.90;;;9.90;63.80;;;;;;5081158;28;20036;-66
2024/03/26 08:00:30;;;;;;;1.38;1.08;;;9.90;63.80;;;;;;5083301;28;20521;-66
2024/03/26 08:02:55;;;;;;;0.80;0.60;;;9.90;63.60;;;;;;5071833;28;20113;-66
2024/03/26 08:05:21;;;;;;;1.00;0.65;;;9.90;63.70;;;;;;5087123;28;20396;-66
2024/03/26 08:07:47;;;;;;;0.93;0.60;;;10.00;63.80;;;;;;5082131;28;20052;-65
2024/03/26 08:10:13;;;;;;;0.70;0.65;;;10.10;63.70;;;;;;5086661;28;20343;-65
2024/03/26 08:12:38;;;;;;;1.80;1.05;;;10.10;63.50;;;;;;5083558;28;20020;-65
2024/03/26 08:15:04;;;;;;;1.50;0.85;;;10.20;63.40;;;;;;5079173;28;20077;-65
2024/03/26 08:17:31;;;;;;;0.73;0.55;;;10.30;63.30;;;;;;5085186;28;20097;-65
2024/03/26 08:19:57;;;;;;;3.42;0.90;;;10.40;63.30;;;;;;5075853;28;20043;-64
2024/03/26 08:22:22;;;;;;;2.88;0.93;;;10.40;63.10;;;;;;5074160;28;20036;-65
2024/03/26 08:24:48;;;;;;;3.05;1.42;;;10.50;63.00;;;;;;5065060;28;20129;-65
2024/03/26 08:27:13;;;;;;;1.58;0.90;;;10.60;62.80;;;;;;5066576;28;20117;-64
2024/03/26 08:29:39;;;;;;;1.25;0.88;;;10.60;62.70;;;;;;5069162;28;20035;-64
2024/03/26 08:32:05;;;;;;;1.02;0.80;;;10.60;62.70;;;;;;5080274;28;20584;-64
2024/03/26 08:34:30;;;;;;;1.52;0.90;;;10.70;62.80;;;;;;5071148;28;20035;-65
2024/03/26 08:36:56;;;;;;;3.92;0.73;;;10.70;62.80;;;;;;5063635;28;20028;-65
2024/03/26 08:39:22;;;;;;;2.70;1.17;;;10.80;62.70;;;;;;5077375;28;20036;-65
2024/03/26 08:41:47;;;;;;;3.22;1.08;;;10.80;62.70;;;;;;5075632;28;20498;-66
2024/03/26 08:44:13;;;;;;;0.82;0.55;;;10.80;62.60;;;;;;5078215;28;20080;-66
2024/03/26 08:46:39;;;;;;;1.75;1.00;;;10.80;62.70;;;;;;5086277;28;20153;-65
2024/03/26 08:49:05;;;;;;;1.52;1.08;;;10.80;62.70;;;;;;5081520;28;20028;-65
2024/03/26 08:51:31;;;;;;;2.47;1.23;;;10.80;62.60;;;;;;5085889;28;20032;-66
2024/03/26 08:53:57;;;;;;;2.80;1.20;;;10.80;62.70;;;;;;5082759;28;20020;-65
2024/03/26 08:56:25;;;;;;;0.75;0.75;;;10.70;62.80;;;;;;5078666;28;20039;-64
2024/03/26 08:58:52;;;;;;;2.38;0.60;;;10.80;62.90;;;;;;5074304;28;20379;-65
2024/03/26 09:01:18;;;;;;;2.83;0.80;;;10.80;62.90;;;;;;5082133;28;20055;-66
2024/03/26 09:03:43;;;;;;;0.82;0.60;;;10.80;62.90;;;;;;5076488;28;20052;-63
2024/03/26 09:06:09;;;;;;;1.13;0.43;;;10.90;62.90;;;;;;5076581;28;20037;-63
2024/03/26 09:08:35;;;;;;;1.15;0.80;;;11.00;62.80;;;;;;5068721;28;20036;-65
2024/03/26 09:11:00;;;;;;;1.20;1.10;;;11.00;62.70;;;;;;5079740;28;20060;-63
2024/03/26 09:13:26;;;;;;;2.58;1.20;;;11.10;62.60;;;;;;5074379;28;20032;-64
2024/03/26 09:15:52;;;;;;;4.38;1.35;;;11.20;62.60;;;;;;5085200;28;20379;-64
2024/03/26 09:18:18;;;;;;;1.30;0.80;;;11.20;62.30;;;;;;5080045;28;20510;-64
2024/03/26 09:20:44;;;;;;;2.15;0.60;;;11.30;62.40;;;;;;5074503;28;20059;-64
2024/03/26 09:23:09;;;;;;;1.90;0.70;;;11.30;62.30;;;;;;5076429;28;20470;-65
2024/03/26 09:25:35;;;;;;;0.70;0.50;;;11.30;62.30;;;;;;5025342;28;1232734;-63
2024/03/26 09:28:01;;;;;;;3.20;1.38;;;11.30;62.40;;;;;;5076953;28;20170;-66
2024/03/26 09:30:27;;;;;;;0.50;0.40;;;11.30;62.40;;;;;;5084488;28;20039;-65
2024/03/26 09:32:56;;;;;;;0.93;0.65;;;11.40;62.40;;;;;;5080931;28;20097;-63
2024/03/26 09:35:22;;;;;;;0.85;0.60;;;11.40;62.50;;;;;;5079113;28;20035;-64
2024/03/26 09:37:48;;;;;;;2.22;1.00;;;11.40;62.50;;;;;;5081644;28;20081;-65
2024/03/26 09:40:14;;;;;;;2.80;1.63;;;11.40;62.50;;;;;;5076538;28;20103;-64
2024/03/26 09:42:42;;;;;;;1.25;0.98;;;11.40;62.50;;;;;;5086613;28;20028;-65
2024/03/26 09:45:13;;;;;;;1.60;1.13;;;11.50;62.60;;;;;;5081270;28;20128;-67
2024/03/26 09:47:43;;;;;;;0.63;0.60;;;11.50;62.60;;;;;;5081955;28;20563;-64
2024/03/26 09:50:10;;;;;;;1.58;1.17;;;11.60;62.60;;;;;;5085356;28;20031;-67
2024/03/26 09:52:40;;;;;;;0.80;0.70;;;11.70;62.50;;;;;;5077483;28;20043;-68
2024/03/26 09:55:07;;;;;;;2.40;1.83;;;11.80;62.20;;;;;;5071808;28;20571;-68
2024/03/26 09:57:33;;;;;;;1.38;1.23;;;11.90;62.10;;;;;;5076933;28;20024;-69
2024/03/26 09:59:59;;;;;;;0.70;0.57;;;11.90;62.10;;;;;;5085955;28;20117;-67
2024/03/26 10:02:25;;;;;;;1.48;1.10;;;12.00;61.90;;;;;;5085436;28;20393;-68
2024/03/26 10:04:51;;;;;;;3.10;1.10;;;12.00;61.80;;;;;;5082673;28;20385;-68
2024/03/26 10:07:16;;;;;;;1.05;0.68;;;12.10;61.90;;;;;;5073655;28;20028;-67
2024/03/26 10:09:43;;;;;;;1.30;1.10;;;12.10;62.00;;;;;;5065690;28;20059;-67
2024/03/26 10:12:11;;;;;;;2.95;1.88;;;12.00;62.00;;;;;;5078410;28;20482;-66
2024/03/26 10:14:41;;;;;;;1.30;0.73;;;12.00;62.10;;;;;;5081289;28;20028;-66
2024/03/26 10:17:07;;;;;;;0.73;0.57;;;12.10;62.10;;;;;;5083992;28;20023;-66
2024/03/26 10:19:33;;;;;;;1.15;0.85;;;12.10;62.10;;;;;;5077305;28;20025;-66
2024/03/26 10:21:59;;;;;;;1.48;0.85;;;12.20;62.00;;;;;;5085719;28;20028;-66
2024/03/26 10:24:24;;;;;;;2.55;1.50;;;12.20;61.80;;;;;;5085542;28;20539;-66
2024/03/26 10:26:51;;;;;;;2.38;0.80;;;12.30;61.70;;;;;;5084639;28;20040;-66
2024/03/26 10:29:17;;;;;;;3.65;0.70;;;12.40;61.60;;;;;;5084146;28;20028;-64
2024/03/26 10:31:49;;;;;;;1.73;0.98;;;12.40;61.40;;;;;;5076495;28;20044;-64
2024/03/26 10:34:19;;;;;;;1.75;1.13;;;12.40;61.50;;;;;;5084895;28;20068;-64
2024/03/26 10:36:45;;;;;;;1.70;1.20;;;12.50;61.40;;;;;;5083473;28;20081;-64
2024/03/26 10:39:14;;;;;;;2.42;0.90;;;12.50;61.40;;;;;;5086404;28;20056;-64
2024/03/26 10:41:41;;;;;;;0.88;0.88;;;12.50;61.30;;;;;;5076367;28;20075;-64
2024/03/26 10:44:08;;;;;;;2.40;1.33;;;12.50;61.00;;;;;;5072335;28;20423;-64
2024/03/26 10:46:35;;;;;;;1.30;0.95;;;12.50;61.00;;;;;;5077371;28;20028;-64
2024/03/26 10:49:06;;;;;;;1.65;0.90;;;12.60;61.00;;;;;;5088484;28;20021;-64
2024/03/26 10:51:32;;;;;;;4.30;1.38;;;12.60;61.00;;;;;;5083954;28;20479;-64
2024/03/26 10:54:01;;;;;;;1.08;0.57;;;12.60;61.00;;;;;;5076581;28;20027;-64
2024/03/26 10:56:27;;;;;;;2.67;0.82;;;12.60;60.80;;;;;;5082567;28;20040;-64
2024/03/26 10:58:57;;;;;;;1.00;0.80;;;12.60;61.00;;;;;;5076382;28;20025;-64
2024/03/26 11:01:24;;;;;;;1.65;1.20;;;12.70;60.90;;;;;;5083041;28;20428;-64
2024/03/26 11:03:51;;;;;;;4.20;1.75;;;12.70;60.80;;;;;;5079572;28;20075;-64
2024/03/26 11:06:21;;;;;;;3.13;1.38;;;12.80;60.70;;;;;;5083356;28;20482;-64
2024/03/26 11:08:47;;;;;;;1.50;1.02;;;12.90;60.70;;;;;;5078827;28;20373;-64
2024/03/26 11:11:19;;;;;;;0.85;0.70;;;13.00;60.60;;;;;;5080435;28;20036;-64
2024/03/26 11:13:45;;;;;;;2.17;0.93;;;13.10;60.60;;;;;;5078069;28;20036;-64
2024/03/26 11:16:35;;;;;;;1.50;0.90;;;13.10;60.30;;;;;;5086655;28;20422;-64
2024/03/26 11:19:25;;;;;;;3.72;1.20;;;13.20;60.30;;;;;;5078172;28;20092;-66
2024/03/26 11:21:55;;;;;;;1.58;0.77;;;13.30;60.00;;;;;;5074881;28;20063;-66
2024/03/26 11:24:25;;;;;;;1.25;0.90;;;13.40;60.00;;;;;;5083743;28;20028;-66
2024/03/26 11:26:56;;;;;;;2.30;1.23;;;13.50;59.80;;;;;;5075671;28;20573;-66
2024/03/26 11:29:24;;;;;;;1.50;0.88;;;13.50;59.70;;;;;;5075487;28;20517;-66
2024/03/26 11:31:50;;;;;;;1.52;0.80;;;13.60;59.70;;;;;;5073811;28;20036;-66
2024/03/26 11:34:16;;;;;;;0.75;0.75;;;13.70;59.70;;;;;;5081760;28;20472;-66
2024/03/26 11:36:42;;;;;;;3.92;0.75;;;13.80;59.40;;;;;;5084368;28;20032;-66
2024/03/26 11:39:15;;;;;;;1.52;1.00;;;13.90;59.40;;;;;;5074312;28;20020;-67
2024/03/26 11:41:41;;;;;;;1.17;0.70;;;14.00;59.20;;;;;;5073510;28;20028;-66
2024/03/26 11:44:07;;;;;;;2.17;1.58;;;13.90;59.30;;;;;;5070269;28;20503;-66
2024/03/26 11:46:33;;;;;;;1.25;1.15;;;13.90;59.40;;;;;;5075270;28;20060;-66
2024/03/26 11:49:08;;;;;;;0.70;0.70;;;14.00;59.50;;;;;;5083279;28;20085;-66
2024/03/26 11:51:35;;;;;;;1.40;0.70;;;14.10;59.40;;;;;;5079852;28;20139;-66
2024/03/26 11:54:02;;;;;;;1.30;0.77;;;14.20;59.40;;;;;;5083449;28;20048;-66
2024/03/26 11:56:28;;;;;;;1.45;0.80;;;14.40;59.20;;;;;;5073054;28;20127;-66
2024/03/26 11:58:53;;;;;;;1.48;0.90;;;14.50;58.90;;;;;;5073748;28;20024;-66
2024/03/26 12:01:20;;;;;;;2.60;0.90;;;14.60;58.90;;;;;;5073252;28;20066;-66
2024/03/26 12:03:53;;;;;;;1.90;0.90;;;14.70;58.60;;;;;;5070674;28;20101;-66
2024/03/26 12:06:23;;;;;;;2.70;1.23;;;14.80;58.50;;;;;;5080652;28;20024;-64
2024/03/26 12:08:54;;;;;;;2.45;1.35;;;14.90;58.60;;;;;;5087304;28;20036;-64
2024/03/26 12:11:21;;;;;;;1.00;0.90;;;15.00;58.20;;;;;;5084240;28;20036;-64
2024/03/26 12:13:47;;;;;;;1.38;0.80;;;15.10;57.80;;;;;;5078957;28;20068;-64
2024/03/26 12:16:26;;;;;;;1.20;0.77;;;15.20;57.80;;;;;;5079002;28;20028;-64
2024/03/26 12:18:56;;;;;;;1.23;0.82;;;15.30;58.40;;;;;;5084393;28;20031;-64
2024/03/26 12:21:22;;;;;;;1.40;1.00;;;15.30;57.60;;;;;;5083403;28;20032;-64
2024/03/26 12:23:56;;;;;;;1.10;1.00;;;15.30;57.70;;;;;;5079541;28;20107;-64
2024/03/26 12:26:22;;;;;;;0.93;0.70;;;15.20;58.40;;;;;;5078280;28;20892;-64
2024/03/26 12:28:49;;;;;;;5.40;2.00;;;15.10;57.90;;;;;;5083815;28;20039;-64
2024/03/26 12:31:16;;;;;;;2.22;1.00;;;15.10;58.00;;;;;;5078876;28;20020;-64
2024/03/26 12:33:45;;;;;;;2.03;1.05;;;15.10;58.20;;;;;;5082161;28;20454;-64
2024/03/26 12:36:11;;;;;;;1.77;1.20;;;15.10;58.20;;;;;;5087007;28;20020;-64
2024/03/26 12:38:38;;;;;;;0.80;0.60;;;15.10;58.10;;;;;;5082395;28;20024;-64
2024/03/26 12:41:09;;;;;;;1.40;1.02;;;15.10;58.20;;;;;;5085040;28;20040;-64
2024/03/26 12:43:34;;;;;;;1.38;1.05;;;15.20;58.10;;;;;;5083971;28;20054;-64
2024/03/26 12:46:01;;;;;;;2.45;1.27;;;15.30;57.80;;;;;;5080349;28;20040;-64
2024/03/26 12:48:27;;;;;;;2.42;1.05;;;15.30;57.20;;;;;;5076094;28;20043;-64